Time;durP1;ratioP1;P1;durP2;ratioP2;P2;SDS_P1;SDS_P2;PMS_P1;PMS_P2;Temp;Humidity;BMP_temperature;BMP_pressure;BME280_temperature;BME280_humidity;BME280_pressure;Samples;Min_cycle;Max_cycle;Signal;HPM_P1;HPM_P2
2023/05/19 00:00:43;;;;;;;13.98;4.43;;;9.70;99.90;;;;;;5092979;28;20485;-58
2023/05/19 00:03:11;;;;;;;15.02;4.53;;;9.60;99.90;;;;;;5094299;28;20039;-58
2023/05/19 00:05:44;;;;;;;10.82;4.10;;;9.60;99.90;;;;;;5094192;28;20509;-58
2023/05/19 00:08:12;;;;;;;11.43;4.20;;;9.50;99.90;;;;;;5094089;28;20072;-58
2023/05/19 00:10:38;;;;;;;12.90;4.22;;;9.60;99.90;;;;;;5093917;28;20040;-58
2023/05/19 00:13:04;;;;;;;15.57;3.88;;;9.60;99.90;;;;;;5094101;28;20034;-58
2023/05/19 00:15:30;;;;;;;11.80;4.22;;;9.60;99.90;;;;;;5094182;28;20036;-58
2023/05/19 00:17:55;;;;;;;10.35;4.00;;;9.50;99.90;;;;;;5093914;28;20040;-58
2023/05/19 00:20:21;;;;;;;12.07;5.22;;;9.60;99.90;;;;;;5094007;28;20462;-59
2023/05/19 00:22:47;;;;;;;14.75;3.72;;;9.60;99.90;;;;;;5093816;28;20424;-58
2023/05/19 00:25:13;;;;;;;15.85;3.83;;;9.70;99.90;;;;;;5093529;28;20077;-58
2023/05/19 00:27:38;;;;;;;16.27;5.50;;;9.50;99.90;;;;;;5093891;28;20363;-58
2023/05/19 00:30:04;;;;;;;10.95;3.35;;;9.50;99.90;;;;;;5093619;28;20032;-59
2023/05/19 00:32:30;;;;;;;10.98;3.78;;;9.50;99.90;;;;;;5093476;28;20090;-58
2023/05/19 00:34:56;;;;;;;11.77;4.10;;;9.50;99.90;;;;;;5093498;28;20429;-58
2023/05/19 00:37:22;;;;;;;13.77;3.47;;;9.50;99.90;;;;;;5079136;28;20041;-58
2023/05/19 00:39:48;;;;;;;18.50;4.15;;;9.50;99.90;;;;;;5093304;28;20032;-58
2023/05/19 00:42:13;;;;;;;10.35;3.40;;;9.50;99.90;;;;;;5093468;28;20044;-58
2023/05/19 00:44:40;;;;;;;12.82;4.20;;;9.40;99.90;;;;;;5092118;28;20147;-58
2023/05/19 00:47:07;;;;;;;15.55;3.53;;;9.50;99.90;;;;;;5093440;28;20044;-58
2023/05/19 00:49:32;;;;;;;13.35;3.47;;;9.50;99.90;;;;;;5093549;28;20048;-58
2023/05/19 00:52:00;;;;;;;12.05;3.50;;;9.50;99.90;;;;;;5093062;28;20044;-58
2023/05/19 00:54:27;;;;;;;10.68;3.50;;;9.50;99.90;;;;;;5093258;28;20098;-58
2023/05/19 00:56:54;;;;;;;12.82;3.35;;;9.40;99.90;;;;;;5093427;28;20058;-58
2023/05/19 00:59:19;;;;;;;8.57;3.28;;;9.40;99.90;;;;;;5093442;28;20050;-58
2023/05/19 01:01:47;;;;;;;12.60;3.78;;;9.50;99.90;;;;;;5093207;28;20055;-58
2023/05/19 01:04:18;;;;;;;11.98;3.40;;;9.40;99.90;;;;;;5093183;28;20047;-58
2023/05/19 01:06:54;;;;;;;13.65;3.65;;;9.50;99.90;;;;;;5092879;28;20051;-58
2023/05/19 01:09:21;;;;;;;12.95;3.05;;;9.50;99.90;;;;;;5092970;28;20040;-58
2023/05/19 01:11:47;;;;;;;14.30;3.33;;;9.40;99.90;;;;;;5092923;28;20044;-58
2023/05/19 01:14:14;;;;;;;13.45;3.47;;;9.50;99.90;;;;;;5091627;28;20039;-58
2023/05/19 01:16:47;;;;;;;17.48;3.60;;;9.50;99.90;;;;;;5092544;28;20062;-58
2023/05/19 01:19:40;;;;;;;11.35;3.58;;;9.50;99.90;;;;;;5092708;28;20036;-58
2023/05/19 01:22:21;;;;;;;9.55;3.22;;;9.50;99.90;;;;;;5092552;28;20844;-58
2023/05/19 01:25:16;;;;;;;16.75;3.30;;;9.50;99.90;;;;;;5092769;28;20044;-58
2023/05/19 01:28:14;;;;;;;9.52;3.08;;;9.40;99.90;;;;;;5080401;28;20187;-58
2023/05/19 01:30:42;;;;;;;18.85;3.92;;;9.40;99.90;;;;;;5092335;28;20036;-58
2023/05/19 01:33:10;;;;;;;13.43;3.55;;;9.40;99.90;;;;;;5083528;28;20483;-58
2023/05/19 01:35:37;;;;;;;15.13;4.57;;;9.40;99.90;;;;;;5090532;28;20118;-58
2023/05/19 01:38:06;;;;;;;13.82;3.70;;;9.40;99.90;;;;;;5092276;28;20028;-58
2023/05/19 01:40:33;;;;;;;15.82;4.00;;;9.40;99.90;;;;;;5092370;28;20044;-58
2023/05/19 01:43:00;;;;;;;17.02;3.72;;;9.40;99.90;;;;;;5079405;28;20045;-58
2023/05/19 01:45:28;;;;;;;17.85;4.13;;;9.30;99.90;;;;;;5090116;28;20043;-58
2023/05/19 01:47:57;;;;;;;20.58;5.53;;;9.40;99.90;;;;;;5092217;28;20044;-58
2023/05/19 01:50:22;;;;;;;9.30;3.20;;;9.30;99.90;;;;;;5088219;28;20072;-58
2023/05/19 01:52:48;;;;;;;16.35;4.25;;;9.30;99.90;;;;;;5081573;28;20140;-58
2023/05/19 01:55:14;;;;;;;15.38;3.67;;;9.40;99.90;;;;;;5091057;28;20040;-58
2023/05/19 01:58:01;;;;;;;14.82;3.97;;;9.30;99.90;;;;;;5092042;28;20032;-58
2023/05/19 02:00:51;;;;;;;21.15;4.72;;;9.30;99.90;;;;;;5091937;28;20036;-58
2023/05/19 02:03:41;;;;;;;25.00;4.50;;;9.30;99.90;;;;;;5091972;28;20066;-58
2023/05/19 02:06:43;;;;;;;15.70;4.03;;;9.30;99.90;;;;;;5091853;28;20528;-58
2023/05/19 02:09:22;;;;;;;22.15;4.60;;;9.30;99.90;;;;;;5077430;28;20397;-58
2023/05/19 02:12:06;;;;;;;14.68;3.50;;;9.30;99.90;;;;;;5092351;28;20043;-58
2023/05/19 02:14:34;;;;;;;15.82;4.05;;;9.20;99.90;;;;;;5077831;28;20032;-58
2023/05/19 02:17:03;;;;;;;17.85;4.32;;;9.30;99.90;;;;;;5091944;28;20028;-58
2023/05/19 02:19:35;;;;;;;17.27;4.70;;;9.30;99.90;;;;;;5091754;28;20050;-58
2023/05/19 02:22:00;;;;;;;16.17;4.07;;;9.20;99.90;;;;;;5090532;28;20485;-58
2023/05/19 02:24:26;;;;;;;14.73;4.30;;;9.20;99.90;;;;;;5091527;28;20046;-59
2023/05/19 02:26:52;;;;;;;12.00;3.50;;;9.20;99.90;;;;;;5092170;28;20036;-58
2023/05/19 02:29:21;;;;;;;17.48;4.50;;;9.20;99.90;;;;;;5091842;28;20135;-58
2023/05/19 02:31:47;;;;;;;16.55;4.10;;;9.20;99.90;;;;;;5091923;28;20124;-58
2023/05/19 02:34:12;;;;;;;13.45;3.95;;;9.20;99.90;;;;;;5091859;28;20139;-58
2023/05/19 02:36:41;;;;;;;12.00;4.25;;;9.20;99.90;;;;;;5091766;28;20069;-58
2023/05/19 02:39:08;;;;;;;18.92;3.65;;;9.30;99.90;;;;;;5091822;28;20076;-58
2023/05/19 02:41:33;;;;;;;13.02;3.70;;;9.20;99.90;;;;;;5087917;28;20051;-58
2023/05/19 02:43:59;;;;;;;19.20;3.63;;;9.20;99.90;;;;;;5081295;28;20142;-58
2023/05/19 02:46:25;;;;;;;14.80;3.95;;;9.20;99.90;;;;;;5091460;28;20051;-58
2023/05/19 02:48:51;;;;;;;11.90;3.20;;;9.20;99.90;;;;;;5091289;28;20075;-58
2023/05/19 02:51:17;;;;;;;16.60;4.00;;;9.10;99.90;;;;;;5091246;28;20051;-58
2023/05/19 02:53:42;;;;;;;16.73;4.13;;;9.10;99.90;;;;;;5091818;28;20036;-58
2023/05/19 02:56:08;;;;;;;19.50;4.07;;;9.20;99.90;;;;;;5091325;28;20036;-58
2023/05/19 02:58:34;;;;;;;13.45;3.50;;;9.20;99.90;;;;;;5090137;28;20036;-58
2023/05/19 03:00:59;;;;;;;15.65;4.45;;;9.10;99.90;;;;;;5091512;28;20094;-58
2023/05/19 03:03:25;;;;;;;16.25;4.15;;;9.10;99.90;;;;;;5091258;28;20040;-58
2023/05/19 03:05:52;;;;;;;14.02;3.85;;;9.10;99.90;;;;;;5090259;28;20079;-58
2023/05/19 03:08:18;;;;;;;16.02;4.47;;;9.10;99.90;;;;;;5090238;28;20051;-58
2023/05/19 03:10:45;;;;;;;20.17;4.53;;;9.10;99.90;;;;;;5092655;28;20043;-58
2023/05/19 03:13:11;;;;;;;9.48;3.97;;;9.10;99.90;;;;;;5094202;28;20051;-58
2023/05/19 03:15:37;;;;;;;16.30;5.18;;;9.10;99.90;;;;;;5095120;28;20038;-58
2023/05/19 03:18:03;;;;;;;16.40;5.80;;;9.10;99.90;;;;;;5095106;28;20040;-58
2023/05/19 03:20:29;;;;;;;18.67;4.32;;;9.10;99.90;;;;;;5094879;28;20040;-58
2023/05/19 03:22:55;;;;;;;20.70;4.80;;;9.00;99.90;;;;;;5094911;28;20046;-58
2023/05/19 03:25:21;;;;;;;21.90;5.63;;;9.10;99.90;;;;;;5094680;28;20514;-58
2023/05/19 03:27:47;;;;;;;12.65;4.68;;;9.10;99.90;;;;;;5095063;28;20058;-58
2023/05/19 03:30:13;;;;;;;20.08;5.53;;;9.00;99.90;;;;;;5095130;28;20059;-58
2023/05/19 03:32:39;;;;;;;19.10;5.50;;;9.10;99.90;;;;;;5094154;28;20091;-58
2023/05/19 03:35:05;;;;;;;21.95;5.10;;;9.10;99.90;;;;;;5094763;28;20071;-58
2023/05/19 03:37:33;;;;;;;13.93;5.45;;;9.00;99.90;;;;;;5094865;28;20032;-58
2023/05/19 03:39:59;;;;;;;12.73;5.00;;;9.00;99.90;;;;;;5094932;28;20503;-58
2023/05/19 03:42:25;;;;;;;21.52;5.85;;;9.00;99.90;;;;;;5083793;28;20075;-58
2023/05/19 03:44:50;;;;;;;20.88;5.35;;;9.00;99.90;;;;;;5090762;28;20119;-58
2023/05/19 03:47:16;;;;;;;12.35;4.07;;;9.00;99.90;;;;;;5094508;28;20110;-58
2023/05/19 03:49:42;;;;;;;17.60;5.22;;;9.00;99.90;;;;;;5094532;28;20040;-58
2023/05/19 03:52:08;;;;;;;16.13;4.72;;;9.10;99.90;;;;;;5094186;28;20056;-58
2023/05/19 03:54:34;;;;;;;15.95;5.78;;;9.10;99.90;;;;;;5094520;28;20047;-58
2023/05/19 03:57:01;;;;;;;23.67;5.85;;;9.10;99.90;;;;;;5094493;28;20387;-58
2023/05/19 03:59:27;;;;;;;16.52;5.90;;;9.00;99.90;;;;;;5094025;28;20478;-58
2023/05/19 04:01:52;;;;;;;25.85;5.97;;;9.10;99.90;;;;;;5094365;28;20032;-58
2023/05/19 04:04:18;;;;;;;17.13;5.40;;;9.20;99.90;;;;;;5093232;28;20044;-58
2023/05/19 04:06:44;;;;;;;32.70;6.05;;;9.10;99.90;;;;;;5094229;28;20032;-58
2023/05/19 04:09:12;;;;;;;20.33;5.53;;;9.10;99.90;;;;;;5093985;28;20091;-58
2023/05/19 04:11:38;;;;;;;21.15;5.28;;;9.10;99.90;;;;;;5094163;28;20032;-58
2023/05/19 04:14:04;;;;;;;17.80;5.05;;;9.20;99.90;;;;;;5093982;28;20064;-58
2023/05/19 04:16:30;;;;;;;17.35;5.78;;;9.10;99.90;;;;;;5093742;28;20360;-58
2023/05/19 04:18:56;;;;;;;19.98;6.80;;;9.20;99.90;;;;;;5092831;28;20040;-58
2023/05/19 04:21:21;;;;;;;17.10;5.88;;;9.10;99.90;;;;;;5093591;28;20036;-58
2023/05/19 04:23:47;;;;;;;22.98;6.63;;;9.20;99.90;;;;;;5093954;28;20035;-58
2023/05/19 04:26:14;;;;;;;22.05;6.53;;;9.10;99.90;;;;;;5093888;28;20064;-58
2023/05/19 04:28:41;;;;;;;15.68;5.90;;;9.20;99.90;;;;;;5093864;28;20044;-58
2023/05/19 04:31:09;;;;;;;20.48;6.95;;;9.30;99.90;;;;;;5093762;28;20054;-58
2023/05/19 04:33:36;;;;;;;22.45;6.32;;;9.30;99.90;;;;;;5093767;28;20165;-58
2023/05/19 04:36:07;;;;;;;18.70;5.43;;;9.30;99.90;;;;;;5093514;28;20482;-58
2023/05/19 04:38:36;;;;;;;16.48;5.90;;;9.30;99.90;;;;;;5093672;28;20040;-59
2023/05/19 04:41:09;;;;;;;20.17;6.28;;;9.40;99.90;;;;;;5093409;28;20056;-58
2023/05/19 04:43:35;;;;;;;16.35;5.70;;;9.50;99.90;;;;;;5078238;28;20063;-58
2023/05/19 04:46:04;;;;;;;20.58;5.85;;;9.60;99.90;;;;;;5093612;28;20070;-58
2023/05/19 04:48:30;;;;;;;18.20;6.18;;;9.60;99.90;;;;;;5093080;28;20435;-58
2023/05/19 04:50:56;;;;;;;18.73;5.50;;;9.70;99.90;;;;;;5092732;28;20048;-58
2023/05/19 04:53:24;;;;;;;19.05;5.68;;;9.70;99.90;;;;;;5093374;28;20170;-58
2023/05/19 04:55:50;;;;;;;21.67;6.18;;;9.80;99.90;;;;;;5092948;28;20039;-58
2023/05/19 04:58:16;;;;;;;17.40;5.30;;;9.90;99.90;;;;;;5093046;28;20375;-58
2023/05/19 05:00:41;;;;;;;14.57;5.22;;;10.00;99.90;;;;;;5092915;28;20069;-58
2023/05/19 05:03:07;;;;;;;15.23;5.75;;;10.00;99.90;;;;;;5093081;28;20040;-58
2023/05/19 05:05:33;;;;;;;16.10;6.07;;;10.30;99.90;;;;;;5093040;28;20462;-58
2023/05/19 05:07:59;;;;;;;14.05;5.50;;;10.30;99.90;;;;;;5092851;28;20036;-58
2023/05/19 05:10:25;;;;;;;11.25;5.38;;;10.40;99.90;;;;;;5092752;28;20051;-58
2023/05/19 05:12:51;;;;;;;12.73;4.88;;;10.50;99.90;;;;;;5092809;28;20043;-58
2023/05/19 05:15:17;;;;;;;13.95;5.72;;;10.50;99.90;;;;;;5092037;28;20040;-58
2023/05/19 05:17:43;;;;;;;14.45;5.20;;;10.70;99.90;;;;;;5092668;28;20398;-58
2023/05/19 05:20:10;;;;;;;18.42;5.22;;;10.70;99.90;;;;;;5092940;28;20036;-58
2023/05/19 05:22:37;;;;;;;14.18;5.10;;;10.80;99.90;;;;;;5092163;28;20079;-58
2023/05/19 05:25:03;;;;;;;12.27;4.80;;;10.90;99.90;;;;;;5075463;28;20040;-58
2023/05/19 05:27:29;;;;;;;13.65;5.28;;;11.00;99.90;;;;;;5072371;28;20036;-58
2023/05/19 05:29:55;;;;;;;10.50;5.05;;;11.10;99.90;;;;;;5072239;28;20413;-58
2023/05/19 05:32:21;;;;;;;8.32;4.13;;;11.20;99.90;;;;;;5072597;28;20151;-58
2023/05/19 05:34:47;;;;;;;7.13;3.88;;;11.40;99.90;;;;;;5071645;28;20123;-57
2023/05/19 05:37:13;;;;;;;16.27;6.13;;;11.40;99.90;;;;;;5072057;28;20115;-58
2023/05/19 05:39:39;;;;;;;10.18;4.60;;;11.50;99.90;;;;;;5072161;28;20086;-58
2023/05/19 05:42:05;;;;;;;12.88;4.82;;;11.60;99.90;;;;;;5070676;28;20032;-58
2023/05/19 05:44:30;;;;;;;9.18;4.40;;;11.70;99.90;;;;;;5118801;27;20040;-58
2023/05/19 05:46:56;;;;;;;12.77;4.70;;;11.90;99.90;;;;;;5092025;28;20028;-58
2023/05/19 05:49:22;;;;;;;11.32;5.15;;;12.00;99.90;;;;;;5092377;28;20113;-58
2023/05/19 05:51:48;;;;;;;9.23;4.32;;;12.00;99.90;;;;;;5091918;28;20483;-58
2023/05/19 05:54:17;;;;;;;11.25;4.82;;;12.00;99.90;;;;;;5092016;28;20039;-58
2023/05/19 05:56:43;;;;;;;9.73;4.57;;;12.20;99.90;;;;;;5091810;28;20067;-58
2023/05/19 05:59:09;;;;;;;17.83;5.25;;;12.20;99.90;;;;;;5092316;28;20078;-57
2023/05/19 06:01:35;;;;;;;12.00;4.95;;;12.30;99.90;;;;;;5092164;28;20035;-58
2023/05/19 06:04:01;;;;;;;12.93;4.07;;;12.30;99.90;;;;;;5091987;28;20077;-58
2023/05/19 06:06:27;;;;;;;8.93;4.45;;;12.40;99.90;;;;;;5091805;28;20032;-58
2023/05/19 06:08:52;;;;;;;17.00;4.63;;;12.50;99.90;;;;;;5092119;28;20092;-57
2023/05/19 06:11:18;;;;;;;10.32;4.40;;;12.50;99.90;;;;;;5091668;28;20035;-58
2023/05/19 06:13:44;;;;;;;9.43;3.70;;;12.50;99.90;;;;;;5090633;28;20067;-58
2023/05/19 06:16:10;;;;;;;11.52;4.25;;;12.70;99.90;;;;;;5091883;28;20506;-58
2023/05/19 06:18:35;;;;;;;14.98;4.15;;;13.00;99.90;;;;;;5091538;28;20047;-58
2023/05/19 06:21:02;;;;;;;12.93;4.07;;;13.10;99.90;;;;;;5092003;28;20040;-58
2023/05/19 06:23:29;;;;;;;10.63;4.13;;;13.20;99.90;;;;;;5085301;28;20238;-58
2023/05/19 06:25:55;;;;;;;8.85;4.35;;;13.30;99.90;;;;;;5070481;28;20103;-58
2023/05/19 06:28:21;;;;;;;11.95;4.13;;;13.40;99.90;;;;;;5071847;28;20140;-58
2023/05/19 06:30:46;;;;;;;12.52;3.90;;;13.60;99.90;;;;;;5070197;28;20435;-58
2023/05/19 06:33:12;;;;;;;12.15;4.30;;;13.80;99.90;;;;;;5071495;28;20527;-58
2023/05/19 06:35:38;;;;;;;8.70;3.28;;;13.90;99.90;;;;;;5071317;28;20024;-58
2023/05/19 06:38:03;;;;;;;11.38;3.22;;;13.90;99.90;;;;;;5071442;28;20115;-58
2023/05/19 06:40:29;;;;;;;9.15;3.38;;;13.90;99.90;;;;;;5071514;28;20032;-58
2023/05/19 06:42:55;;;;;;;6.95;3.55;;;13.90;99.90;;;;;;5072122;28;20040;-58
2023/05/19 06:45:21;;;;;;;11.15;3.28;;;13.90;99.90;;;;;;5093763;28;20048;-58
2023/05/19 06:47:49;;;;;;;12.05;3.58;;;14.10;99.90;;;;;;5095826;28;20031;-58
2023/05/19 06:50:15;;;;;;;8.05;2.92;;;14.30;99.90;;;;;;5095148;28;20120;-58
2023/05/19 06:52:41;;;;;;;10.70;4.07;;;14.30;99.90;;;;;;5095345;28;20114;-58
2023/05/19 06:55:07;;;;;;;9.95;3.70;;;14.40;99.90;;;;;;5095168;28;20478;-58
2023/05/19 06:57:33;;;;;;;11.88;3.40;;;14.40;99.90;;;;;;5095617;28;20038;-58
2023/05/19 06:59:58;;;;;;;9.45;3.50;;;14.60;99.90;;;;;;5095414;28;20036;-58
2023/05/19 07:02:24;;;;;;;10.45;3.70;;;14.80;99.90;;;;;;5095167;28;20379;-58
2023/05/19 07:04:51;;;;;;;10.98;3.60;;;15.00;99.90;;;;;;5095258;28;20043;-58
2023/05/19 07:07:17;;;;;;;8.73;2.95;;;15.20;99.90;;;;;;5095101;28;20044;-58
2023/05/19 07:09:43;;;;;;;6.70;3.45;;;15.30;99.90;;;;;;5095383;28;20042;-58
2023/05/19 07:12:08;;;;;;;7.63;3.28;;;15.50;99.90;;;;;;5094996;28;20032;-58
2023/05/19 07:14:35;;;;;;;10.88;3.05;;;15.80;99.90;;;;;;5095279;28;20145;-58
2023/05/19 07:17:01;;;;;;;9.88;2.72;;;16.00;99.90;;;;;;5095347;28;20040;-58
2023/05/19 07:19:26;;;;;;;9.85;2.60;;;16.40;99.90;;;;;;5095059;28;20040;-58
2023/05/19 07:21:53;;;;;;;9.45;3.03;;;16.30;99.90;;;;;;5095006;28;20040;-58
2023/05/19 07:24:20;;;;;;;8.05;2.50;;;16.70;99.90;;;;;;5095003;28;20430;-58
2023/05/19 07:26:46;;;;;;;6.72;2.50;;;16.70;99.90;;;;;;5095206;28;20425;-58
2023/05/19 07:29:11;;;;;;;7.07;2.95;;;16.90;99.90;;;;;;5094685;28;20039;-58
2023/05/19 07:31:37;;;;;;;8.20;2.50;;;16.90;99.90;;;;;;5094904;28;20036;-59
2023/05/19 07:34:03;;;;;;;7.18;2.30;;;16.90;99.90;;;;;;5094873;28;20500;-58
2023/05/19 07:36:28;;;;;;;7.20;2.42;;;17.10;99.90;;;;;;5094640;28;20486;-58
2023/05/19 07:38:54;;;;;;;7.40;2.72;;;17.10;99.90;;;;;;5094671;28;20423;-59
2023/05/19 07:41:20;;;;;;;5.30;2.28;;;16.90;99.90;;;;;;5092884;28;20395;-58
2023/05/19 07:43:46;;;;;;;7.97;2.67;;;17.40;99.90;;;;;;5082221;28;20066;-58
2023/05/19 07:46:11;;;;;;;13.15;2.45;;;17.40;99.90;;;;;;5093283;28;20410;-58
2023/05/19 07:48:37;;;;;;;8.88;2.40;;;17.60;99.90;;;;;;5094334;28;20046;-58
2023/05/19 07:51:03;;;;;;;4.90;2.35;;;17.90;99.90;;;;;;5094129;28;20411;-58
2023/05/19 07:53:29;;;;;;;7.57;2.70;;;18.00;99.90;;;;;;5094366;28;20444;-58
2023/05/19 07:55:55;;;;;;;5.68;2.28;;;18.00;99.90;;;;;;5093958;28;20394;-58
2023/05/19 07:58:21;;;;;;;10.82;2.80;;;18.50;99.90;;;;;;5094140;28;20040;-58
2023/05/19 08:00:46;;;;;;;9.55;2.50;;;18.50;99.90;;;;;;5094284;28;20035;-58
2023/05/19 08:03:12;;;;;;;8.70;2.42;;;18.80;99.90;;;;;;5094673;28;20104;-58
2023/05/19 08:05:38;;;;;;;8.13;2.63;;;18.80;99.90;;;;;;5094038;28;20036;-59
2023/05/19 08:08:04;;;;;;;7.50;2.00;;;19.10;99.90;;;;;;5094402;28;20093;-58
2023/05/19 08:10:29;;;;;;;6.93;2.38;;;19.10;99.90;;;;;;5094202;28;20471;-58
2023/05/19 08:12:55;;;;;;;6.47;2.33;;;19.10;99.90;;;;;;5094304;28;20046;-58
2023/05/19 08:15:21;;;;;;;7.30;2.50;;;19.70;99.90;;;;;;5094195;28;20078;-59
2023/05/19 08:17:46;;;;;;;7.40;2.40;;;19.70;99.90;;;;;;5094029;28;20073;-58
2023/05/19 08:20:12;;;;;;;7.32;1.90;;;19.80;99.60;;;;;;5093758;28;20039;-58
2023/05/19 08:22:38;;;;;;;8.50;2.15;;;19.50;99.90;;;;;;5089479;28;20111;-58
2023/05/19 08:25:05;;;;;;;9.38;2.60;;;19.50;99.80;;;;;;5078856;28;20097;-58
2023/05/19 08:27:31;;;;;;;7.90;2.80;;;19.50;99.90;;;;;;5076211;28;20060;-58
2023/05/19 08:29:57;;;;;;;9.48;2.60;;;19.20;99.80;;;;;;5089239;28;20050;-59
2023/05/19 08:32:23;;;;;;;7.28;2.63;;;19.20;99.70;;;;;;5088441;28;20083;-59
2023/05/19 08:34:49;;;;;;;21.15;2.60;;;19.20;99.80;;;;;;5075997;28;20072;-59
2023/05/19 08:37:14;;;;;;;7.63;3.03;;;19.10;99.80;;;;;;5079213;28;20090;-58
2023/05/19 08:39:40;;;;;;;6.10;2.60;;;19.20;99.50;;;;;;5076764;28;20043;-58
2023/05/19 08:42:08;;;;;;;16.50;3.45;;;19.10;99.90;;;;;;5079776;28;20089;-59
2023/05/19 08:44:38;;;;;;;7.15;2.75;;;19.40;99.60;;;;;;5082104;28;20095;-59
2023/05/19 08:47:06;;;;;;;7.72;2.95;;;19.60;99.90;;;;;;5073603;28;20052;-59
2023/05/19 08:49:35;;;;;;;9.87;2.30;;;19.30;99.70;;;;;;5078870;28;20055;-58
2023/05/19 08:52:23;;;;;;;11.43;2.60;;;19.20;99.70;;;;;;5084208;28;20274;-59
2023/05/19 08:55:05;;;;;;;7.90;2.83;;;19.50;99.50;;;;;;5080399;28;20040;-59
2023/05/19 08:57:31;;;;;;;7.22;3.08;;;19.50;99.40;;;;;;5075883;28;20045;-59
2023/05/19 08:59:58;;;;;;;6.47;2.35;;;19.80;99.90;;;;;;5079556;28;20075;-59
2023/05/19 09:02:24;;;;;;;8.50;2.75;;;19.90;99.60;;;;;;5084477;28;20047;-59
2023/05/19 09:04:51;;;;;;;9.57;2.97;;;20.10;99.50;;;;;;5080984;28;20127;-59
2023/05/19 09:07:18;;;;;;;8.60;2.80;;;20.40;99.90;;;;;;5079103;28;20040;-58
2023/05/19 09:09:44;;;;;;;6.65;2.55;;;20.40;99.60;;;;;;5087943;28;20048;-59
2023/05/19 09:12:10;;;;;;;8.38;2.85;;;21.00;99.90;;;;;;5093078;28;20386;-59
2023/05/19 09:14:37;;;;;;;14.00;3.88;;;20.70;98.30;;;;;;5093285;28;20151;-59
2023/05/19 09:17:03;;;;;;;5.88;2.95;;;20.90;98.90;;;;;;5092847;28;20035;-58
2023/05/19 09:19:29;;;;;;;6.40;2.65;;;20.90;98.40;;;;;;5082146;28;20121;-59
2023/05/19 09:22:02;;;;;;;10.18;2.78;;;21.00;97.50;;;;;;5072534;28;20079;-58
2023/05/19 09:24:28;;;;;;;9.88;3.08;;;20.70;96.80;;;;;;5081445;28;20088;-59
2023/05/19 09:26:56;;;;;;;7.03;2.80;;;21.00;98.00;;;;;;5092447;28;20402;-59
2023/05/19 09:29:22;;;;;;;5.25;2.72;;;20.90;97.40;;;;;;5091645;28;20032;-59
2023/05/19 09:31:49;;;;;;;8.35;3.15;;;21.20;98.10;;;;;;5092782;28;20035;-58
2023/05/19 09:34:15;;;;;;;9.45;3.30;;;21.10;98.30;;;;;;5092083;28;20471;-59
2023/05/19 09:36:41;;;;;;;8.55;3.40;;;21.00;98.10;;;;;;5092282;28;20039;-59
2023/05/19 09:39:17;;;;;;;9.52;3.08;;;21.10;97.40;;;;;;5091288;28;20457;-59
2023/05/19 09:41:44;;;;;;;7.35;2.85;;;21.20;99.00;;;;;;5084506;28;20474;-59
2023/05/19 09:44:20;;;;;;;8.15;2.97;;;21.00;97.50;;;;;;5085259;28;20176;-59
2023/05/19 09:46:50;;;;;;;5.25;2.47;;;20.90;97.10;;;;;;5079057;28;20048;-59
2023/05/19 09:49:20;;;;;;;8.30;2.53;;;20.80;98.30;;;;;;5085831;28;20040;-59
2023/05/19 09:51:49;;;;;;;9.50;3.42;;;20.80;98.40;;;;;;5078488;28;20048;-59
2023/05/19 09:54:15;;;;;;;;;;;21.00;97.00;;;;;;5073361;28;20041;-59
2023/05/19 09:56:41;;;;;;;7.93;2.75;;;21.10;96.90;;;;;;5076337;28;19924;-59
2023/05/19 09:59:07;;;;;;;6.30;2.50;;;21.10;97.90;;;;;;5079388;28;20082;-59
2023/05/19 10:01:32;;;;;;;9.32;2.80;;;21.40;97.90;;;;;;5085784;28;20040;-59
2023/05/19 10:03:59;;;;;;;5.00;2.25;;;21.40;98.10;;;;;;5080218;28;20086;-59
2023/05/19 10:06:25;;;;;;;8.73;2.80;;;21.60;98.10;;;;;;5076677;28;20086;-59
2023/05/19 10:08:53;;;;;;;7.53;2.50;;;21.80;96.90;;;;;;5073786;28;20037;-59
2023/05/19 10:11:21;;;;;;;7.27;2.20;;;21.30;96.10;;;;;;5081373;28;20072;-59
2023/05/19 10:13:51;;;;;;;4.97;2.57;;;21.00;96.50;;;;;;5080626;28;20055;-59
2023/05/19 10:16:19;;;;;;;4.85;2.50;;;21.00;94.30;;;;;;5086269;28;20034;-59
2023/05/19 10:18:45;;;;;;;6.07;2.47;;;20.80;94.50;;;;;;5089067;28;20036;-59
2023/05/19 10:21:12;;;;;;;6.78;1.60;;;20.70;94.90;;;;;;5081682;28;20509;-59
2023/05/19 10:23:37;;;;;;;5.55;2.30;;;20.90;94.20;;;;;;5080682;28;20047;-59
2023/05/19 10:26:05;;;;;;;5.88;2.20;;;20.80;94.30;;;;;;5079470;28;20469;-59
2023/05/19 10:28:36;;;;;;;7.28;2.40;;;21.10;94.30;;;;;;5083888;28;20071;-59
2023/05/19 10:31:06;;;;;;;6.55;2.47;;;21.30;94.80;;;;;;5084126;28;20446;-59
2023/05/19 10:34:05;;;;;;;5.82;2.20;;;21.50;93.00;;;;;;5071653;28;20505;-59
2023/05/19 10:36:53;;;;;;;5.63;2.15;;;21.80;94.10;;;;;;5071854;28;20400;-60
2023/05/19 10:39:26;;;;;;;7.82;2.03;;;21.70;93.20;;;;;;5124887;27;20047;-59
2023/05/19 10:42:14;;;;;;;9.93;2.28;;;21.30;92.60;;;;;;5087102;28;20415;-59
2023/05/19 10:44:57;;;;;;;6.82;2.20;;;21.60;92.50;;;;;;5100018;28;20530;-60
2023/05/19 10:47:26;;;;;;;7.88;2.47;;;21.50;92.80;;;;;;5090952;28;20371;-59
2023/05/19 10:49:53;;;;;;;5.28;2.10;;;21.30;93.70;;;;;;5078116;28;20504;-60
2023/05/19 10:52:28;;;;;;;3.00;1.75;;;21.20;93.30;;;;;;5071211;28;20499;-59
2023/05/19 10:54:54;;;;;;;6.07;1.88;;;21.40;93.60;;;;;;5071546;28;20045;-59
2023/05/19 10:57:29;;;;;;;6.30;2.10;;;21.30;93.20;;;;;;5071408;28;20035;-60
2023/05/19 10:59:56;;;;;;;5.32;1.92;;;21.30;93.30;;;;;;5071320;28;20107;-59
2023/05/19 11:02:39;;;;;;;4.53;2.00;;;21.30;93.50;;;;;;5071640;28;20048;-59
2023/05/19 11:05:17;;;;;;;4.78;2.08;;;21.60;93.50;;;;;;5071442;28;20072;-60
2023/05/19 11:08:04;;;;;;;6.88;2.63;;;21.80;94.30;;;;;;5071347;28;20048;-59
2023/05/19 11:10:30;;;;;;;4.15;1.80;;;21.90;93.00;;;;;;5071170;28;20044;-60
2023/05/19 11:12:58;;;;;;;6.07;2.00;;;22.30;94.10;;;;;;5071337;28;20037;-60
2023/05/19 11:15:28;;;;;;;7.55;2.53;;;22.20;93.60;;;;;;5071079;28;20037;-60
2023/05/19 11:17:54;;;;;;;9.30;1.95;;;22.30;94.30;;;;;;5074402;28;20496;-59
2023/05/19 11:20:25;;;;;;;8.90;2.13;;;22.40;92.80;;;;;;5091641;28;20028;-59
2023/05/19 11:23:02;;;;;;;4.30;2.13;;;22.40;92.80;;;;;;5091156;28;20039;-61
2023/05/19 11:25:45;;;;;;;8.02;2.20;;;22.80;94.50;;;;;;5088297;28;20044;-61
2023/05/19 11:28:13;;;;;;;5.65;2.28;;;22.90;92.10;;;;;;5087197;28;20099;-61
2023/05/19 11:30:44;;;;;;;7.88;1.95;;;22.90;92.40;;;;;;5085263;28;20044;-60
2023/05/19 11:33:10;;;;;;;6.68;2.22;;;23.60;93.10;;;;;;5084699;28;20033;-61
2023/05/19 11:35:36;;;;;;;6.22;2.22;;;24.10;93.10;;;;;;5086952;28;20491;-61
2023/05/19 11:38:02;;;;;;;6.82;1.85;;;24.60;92.50;;;;;;5089338;28;20051;-61
2023/05/19 11:40:28;;;;;;;5.53;1.90;;;25.10;91.80;;;;;;5079084;28;20044;-61
2023/05/19 11:42:54;;;;;;;11.13;2.67;;;25.60;92.40;;;;;;5081474;28;20048;-61
2023/05/19 11:45:26;;;;;;;8.57;2.40;;;25.80;91.70;;;;;;5087986;28;20040;-61
2023/05/19 11:47:55;;;;;;;5.60;2.00;;;25.10;90.50;;;;;;5079251;28;20107;-61
2023/05/19 11:50:21;;;;;;;6.68;2.60;;;24.90;90.90;;;;;;5078435;28;20895;-60
2023/05/19 11:52:46;;;;;;;6.60;2.00;;;24.40;91.10;;;;;;5082506;28;20126;-60
2023/05/19 11:55:22;;;;;;;5.82;2.00;;;24.40;90.90;;;;;;5084408;28;20391;-61
2023/05/19 11:58:01;;;;;;;5.88;2.03;;;25.10;91.40;;;;;;5081491;28;20036;-61
2023/05/19 12:00:28;;;;;;;;;;;25.30;90.90;;;;;;5076289;28;20036;-61
2023/05/19 12:02:54;;;;;;;6.43;2.45;;;25.70;91.70;;;;;;5080319;28;19916;-61
2023/05/19 12:05:21;;;;;;;8.07;2.10;;;25.30;91.50;;;;;;5083691;28;20040;-61
2023/05/19 12:07:50;;;;;;;8.57;2.55;;;24.70;91.80;;;;;;5074004;28;20032;-61
2023/05/19 12:10:20;;;;;;;6.53;2.60;;;24.70;91.60;;;;;;5073904;28;20036;-61
2023/05/19 12:12:48;;;;;;;5.53;2.25;;;24.00;91.10;;;;;;5073982;28;20493;-61
2023/05/19 12:15:15;;;;;;;5.97;2.20;;;24.20;91.30;;;;;;5073841;28;20032;-61
2023/05/19 12:17:41;;;;;;;6.68;1.88;;;24.30;91.10;;;;;;5076955;28;20044;-61
2023/05/19 12:20:08;;;;;;;4.82;1.85;;;24.40;91.20;;;;;;5078741;28;20033;-61
2023/05/19 12:22:34;;;;;;;5.15;2.13;;;24.30;91.20;;;;;;5073849;28;20044;-61
2023/05/19 12:25:00;;;;;;;7.10;2.42;;;24.80;91.40;;;;;;5073914;28;20048;-61
2023/05/19 12:27:26;;;;;;;6.60;2.60;;;24.80;92.50;;;;;;5073609;28;20564;-61
2023/05/19 12:29:54;;;;;;;6.70;2.10;;;24.80;91.40;;;;;;5073507;28;20025;-61
2023/05/19 12:32:27;;;;;;;5.88;2.38;;;25.50;91.20;;;;;;5081336;28;20501;-61
2023/05/19 12:34:55;;;;;;;6.70;2.60;;;24.80;90.70;;;;;;5093941;28;20047;-61
2023/05/19 12:37:21;;;;;;;5.10;1.88;;;24.40;90.30;;;;;;5074888;28;20414;-61
2023/05/19 12:39:48;;;;;;;6.47;2.00;;;23.90;90.60;;;;;;5093953;28;20055;-61
2023/05/19 12:42:15;;;;;;;6.15;2.00;;;23.50;91.00;;;;;;5084126;28;20498;-61
2023/05/19 12:44:46;;;;;;;6.40;2.30;;;24.00;91.20;;;;;;5088482;28;20444;-61
2023/05/19 12:47:15;;;;;;;8.13;2.45;;;24.40;91.20;;;;;;5093461;28;20119;-61
2023/05/19 12:50:05;;;;;;;6.35;2.60;;;24.20;90.90;;;;;;5093116;28;20040;-61